sensor_id;sensor_type;location;lat;lon;timestamp;P1;durP1;ratioP1;P2;durP2;ratioP2
56541;SDS011;42438;53.174;6.730;2023-09-19T00:01:17;7.07;;;2.13;;
56541;SDS011;42438;53.174;6.730;2023-09-19T00:03:50;9.43;;;2.65;;
56541;SDS011;42438;53.174;6.730;2023-09-19T00:06:20;9.45;;;2.10;;
56541;SDS011;42438;53.174;6.730;2023-09-19T00:08:51;7.70;;;1.88;;
56541;SDS011;42438;53.174;6.730;2023-09-19T00:11:23;9.70;;;2.40;;
56541;SDS011;42438;53.174;6.730;2023-09-19T00:13:56;7.40;;;1.50;;
56541;SDS011;42438;53.174;6.730;2023-09-19T00:18:59;4.75;;;1.70;;
56541;SDS011;42438;53.174;6.730;2023-09-19T00:21:39;7.60;;;2.17;;
56541;SDS011;42438;53.174;6.730;2023-09-19T00:24:11;5.80;;;1.85;;
56541;SDS011;42438;53.174;6.730;2023-09-19T00:26:42;6.10;;;1.70;;
56541;SDS011;42438;53.174;6.730;2023-09-19T00:29:13;7.70;;;1.88;;
56541;SDS011;42438;53.174;6.730;2023-09-19T00:31:46;6.28;;;1.70;;
56541;SDS011;42438;53.174;6.730;2023-09-19T00:34:17;5.72;;;1.50;;
56541;SDS011;42438;53.174;6.730;2023-09-19T00:36:47;5.85;;;2.00;;
56541;SDS011;42438;53.174;6.730;2023-09-19T00:39:18;5.05;;;1.67;;
56541;SDS011;42438;53.174;6.730;2023-09-19T00:41:50;8.23;;;2.22;;
56541;SDS011;42438;53.174;6.730;2023-09-19T00:44:21;4.80;;;1.60;;
56541;SDS011;42438;53.174;6.730;2023-09-19T00:46:53;6.45;;;1.88;;
56541;SDS011;42438;53.174;6.730;2023-09-19T00:49:23;6.18;;;2.08;;
56541;SDS011;42438;53.174;6.730;2023-09-19T00:51:55;5.63;;;2.15;;
56541;SDS011;42438;53.174;6.730;2023-09-19T00:54:26;8.27;;;1.70;;
56541;SDS011;42438;53.174;6.730;2023-09-19T00:56:58;7.80;;;2.05;;
56541;SDS011;42438;53.174;6.730;2023-09-19T00:59:28;6.95;;;1.77;;
56541;SDS011;42438;53.174;6.730;2023-09-19T01:02:00;7.25;;;1.80;;
56541;SDS011;42438;53.174;6.730;2023-09-19T01:04:32;11.83;;;3.30;;
56541;SDS011;42438;53.174;6.730;2023-09-19T01:07:03;7.65;;;2.10;;
56541;SDS011;42438;53.174;6.730;2023-09-19T01:09:35;9.70;;;1.80;;
56541;SDS011;42438;53.174;6.730;2023-09-19T01:12:05;6.50;;;1.65;;
56541;SDS011;42438;53.174;6.730;2023-09-19T01:17:24;5.30;;;1.52;;
56541;SDS011;42438;53.174;6.730;2023-09-19T01:20:17;13.02;;;2.60;;
56541;SDS011;42438;53.174;6.730;2023-09-19T01:29:25;7.05;;;1.83;;
56541;SDS011;42438;53.174;6.730;2023-09-19T01:32:05;9.68;;;2.10;;
56541;SDS011;42438;53.174;6.730;2023-09-19T01:34:43;9.68;;;2.30;;
56541;SDS011;42438;53.174;6.730;2023-09-19T01:37:21;8.90;;;2.20;;
56541;SDS011;42438;53.174;6.730;2023-09-19T01:40:02;11.50;;;2.28;;
56541;SDS011;42438;53.174;6.730;2023-09-19T01:48:18;7.40;;;1.60;;
56541;SDS011;42438;53.174;6.730;2023-09-19T01:53:41;5.38;;;1.52;;
56541;SDS011;42438;53.174;6.730;2023-09-19T01:59:13;5.70;;;1.80;;
56541;SDS011;42438;53.174;6.730;2023-09-19T02:01:46;8.57;;;1.85;;
56541;SDS011;42438;53.174;6.730;2023-09-19T02:06:50;6.43;;;2.05;;
56541;SDS011;42438;53.174;6.730;2023-09-19T02:09:21;6.60;;;2.20;;
56541;SDS011;42438;53.174;6.730;2023-09-19T02:11:52;5.75;;;1.98;;
56541;SDS011;42438;53.174;6.730;2023-09-19T02:14:25;5.78;;;1.63;;
56541;SDS011;42438;53.174;6.730;2023-09-19T02:16:57;7.63;;;2.38;;
56541;SDS011;42438;53.174;6.730;2023-09-19T02:19:28;8.77;;;2.50;;
56541;SDS011;42438;53.174;6.730;2023-09-19T02:22:00;8.02;;;2.20;;
56541;SDS011;42438;53.174;6.730;2023-09-19T02:24:38;5.90;;;1.80;;
56541;SDS011;42438;53.174;6.730;2023-09-19T02:27:09;8.75;;;2.47;;
56541;SDS011;42438;53.174;6.730;2023-09-19T02:32:13;5.95;;;1.98;;
56541;SDS011;42438;53.174;6.730;2023-09-19T02:34:43;5.25;;;1.70;;
56541;SDS011;42438;53.174;6.730;2023-09-19T02:37:15;9.93;;;2.30;;
56541;SDS011;42438;53.174;6.730;2023-09-19T02:39:46;7.40;;;2.03;;
56541;SDS011;42438;53.174;6.730;2023-09-19T02:42:16;5.47;;;1.75;;
56541;SDS011;42438;53.174;6.730;2023-09-19T02:44:47;6.40;;;2.00;;
56541;SDS011;42438;53.174;6.730;2023-09-19T02:47:18;6.00;;;2.10;;
56541;SDS011;42438;53.174;6.730;2023-09-19T02:49:48;7.63;;;2.60;;
56541;SDS011;42438;53.174;6.730;2023-09-19T02:52:19;9.23;;;2.22;;
56541;SDS011;42438;53.174;6.730;2023-09-19T02:54:50;6.70;;;1.65;;
56541;SDS011;42438;53.174;6.730;2023-09-19T02:57:21;7.15;;;2.10;;
56541;SDS011;42438;53.174;6.730;2023-09-19T02:59:54;11.20;;;2.80;;
56541;SDS011;42438;53.174;6.730;2023-09-19T03:02:24;4.82;;;1.95;;
56541;SDS011;42438;53.174;6.730;2023-09-19T03:04:57;6.85;;;1.85;;
56541;SDS011;42438;53.174;6.730;2023-09-19T03:07:30;8.13;;;2.17;;
56541;SDS011;42438;53.174;6.730;2023-09-19T03:10:01;6.13;;;1.90;;
56541;SDS011;42438;53.174;6.730;2023-09-19T03:12:33;10.90;;;2.40;;
56541;SDS011;42438;53.174;6.730;2023-09-19T03:15:04;8.85;;;1.80;;
56541;SDS011;42438;53.174;6.730;2023-09-19T03:17:36;7.57;;;2.30;;
56541;SDS011;42438;53.174;6.730;2023-09-19T03:20:07;7.40;;;1.83;;
56541;SDS011;42438;53.174;6.730;2023-09-19T03:22:39;8.85;;;1.75;;
56541;SDS011;42438;53.174;6.730;2023-09-19T03:25:12;5.05;;;1.88;;
56541;SDS011;42438;53.174;6.730;2023-09-19T03:27:43;8.23;;;1.85;;
56541;SDS011;42438;53.174;6.730;2023-09-19T03:30:14;7.70;;;2.10;;
56541;SDS011;42438;53.174;6.730;2023-09-19T03:32:45;9.38;;;2.47;;
56541;SDS011;42438;53.174;6.730;2023-09-19T03:35:17;6.78;;;2.28;;
56541;SDS011;42438;53.174;6.730;2023-09-19T03:37:48;5.78;;;2.00;;
56541;SDS011;42438;53.174;6.730;2023-09-19T03:40:18;5.80;;;1.65;;
56541;SDS011;42438;53.174;6.730;2023-09-19T03:42:51;5.80;;;1.50;;
56541;SDS011;42438;53.174;6.730;2023-09-19T03:45:22;8.20;;;2.20;;
56541;SDS011;42438;53.174;6.730;2023-09-19T03:47:52;7.13;;;2.05;;
56541;SDS011;42438;53.174;6.730;2023-09-19T03:50:23;7.30;;;2.10;;
56541;SDS011;42438;53.174;6.730;2023-09-19T03:52:57;7.63;;;2.00;;
56541;SDS011;42438;53.174;6.730;2023-09-19T03:55:28;7.07;;;1.83;;
56541;SDS011;42438;53.174;6.730;2023-09-19T03:58:00;6.40;;;2.00;;
56541;SDS011;42438;53.174;6.730;2023-09-19T04:00:34;14.55;;;2.08;;
56541;SDS011;42438;53.174;6.730;2023-09-19T04:03:04;6.03;;;1.98;;
56541;SDS011;42438;53.174;6.730;2023-09-19T04:05:36;9.73;;;2.70;;
56541;SDS011;42438;53.174;6.730;2023-09-19T04:08:07;8.13;;;2.30;;
56541;SDS011;42438;53.174;6.730;2023-09-19T04:10:37;5.07;;;1.95;;
56541;SDS011;42438;53.174;6.730;2023-09-19T04:13:08;5.63;;;1.77;;
56541;SDS011;42438;53.174;6.730;2023-09-19T04:15:39;7.18;;;1.83;;
56541;SDS011;42438;53.174;6.730;2023-09-19T04:18:11;6.55;;;1.80;;
56541;SDS011;42438;53.174;6.730;2023-09-19T04:20:47;6.68;;;1.60;;
56541;SDS011;42438;53.174;6.730;2023-09-19T04:23:18;7.28;;;1.92;;
56541;SDS011;42438;53.174;6.730;2023-09-19T04:25:52;9.07;;;2.03;;
56541;SDS011;42438;53.174;6.730;2023-09-19T04:28:23;5.53;;;1.80;;
56541;SDS011;42438;53.174;6.730;2023-09-19T04:30:54;8.27;;;2.10;;
56541;SDS011;42438;53.174;6.730;2023-09-19T04:33:25;6.95;;;1.85;;
56541;SDS011;42438;53.174;6.730;2023-09-19T04:35:57;6.18;;;1.70;;
56541;SDS011;42438;53.174;6.730;2023-09-19T04:38:28;8.43;;;1.75;;
56541;SDS011;42438;53.174;6.730;2023-09-19T04:40:59;7.10;;;2.30;;
56541;SDS011;42438;53.174;6.730;2023-09-19T04:43:29;6.55;;;1.83;;
56541;SDS011;42438;53.174;6.730;2023-09-19T04:46:00;5.45;;;1.90;;
56541;SDS011;42438;53.174;6.730;2023-09-19T04:48:31;5.60;;;1.90;;
56541;SDS011;42438;53.174;6.730;2023-09-19T04:51:04;4.90;;;1.65;;
56541;SDS011;42438;53.174;6.730;2023-09-19T04:53:35;9.60;;;2.28;;
56541;SDS011;42438;53.174;6.730;2023-09-19T04:56:05;6.78;;;1.85;;
56541;SDS011;42438;53.174;6.730;2023-09-19T04:58:37;6.55;;;2.13;;
56541;SDS011;42438;53.174;6.730;2023-09-19T05:01:08;10.10;;;2.03;;
56541;SDS011;42438;53.174;6.730;2023-09-19T05:03:42;7.95;;;2.40;;
56541;SDS011;42438;53.174;6.730;2023-09-19T05:06:13;10.20;;;2.65;;
56541;SDS011;42438;53.174;6.730;2023-09-19T05:08:44;5.32;;;1.90;;
56541;SDS011;42438;53.174;6.730;2023-09-19T05:11:15;6.60;;;2.05;;
56541;SDS011;42438;53.174;6.730;2023-09-19T05:13:46;4.72;;;1.92;;
56541;SDS011;42438;53.174;6.730;2023-09-19T05:16:16;8.13;;;2.00;;
56541;SDS011;42438;53.174;6.730;2023-09-19T05:18:48;6.63;;;2.22;;
56541;SDS011;42438;53.174;6.730;2023-09-19T05:21:19;7.30;;;2.53;;
56541;SDS011;42438;53.174;6.730;2023-09-19T05:23:51;6.85;;;2.38;;
56541;SDS011;42438;53.174;6.730;2023-09-19T05:26:22;8.07;;;2.35;;
56541;SDS011;42438;53.174;6.730;2023-09-19T05:28:53;6.10;;;1.95;;
56541;SDS011;42438;53.174;6.730;2023-09-19T05:31:23;5.88;;;1.80;;
56541;SDS011;42438;53.174;6.730;2023-09-19T05:33:55;6.70;;;1.92;;
56541;SDS011;42438;53.174;6.730;2023-09-19T05:36:26;5.53;;;1.60;;
56541;SDS011;42438;53.174;6.730;2023-09-19T05:38:59;7.03;;;2.28;;
56541;SDS011;42438;53.174;6.730;2023-09-19T05:41:30;8.43;;;2.65;;
56541;SDS011;42438;53.174;6.730;2023-09-19T05:44:01;5.65;;;1.88;;
56541;SDS011;42438;53.174;6.730;2023-09-19T05:46:36;7.93;;;2.20;;
56541;SDS011;42438;53.174;6.730;2023-09-19T05:49:07;8.18;;;2.15;;
56541;SDS011;42438;53.174;6.730;2023-09-19T05:51:38;6.95;;;1.80;;
56541;SDS011;42438;53.174;6.730;2023-09-19T05:54:09;7.47;;;2.13;;
56541;SDS011;42438;53.174;6.730;2023-09-19T05:56:41;6.97;;;2.70;;
56541;SDS011;42438;53.174;6.730;2023-09-19T05:59:12;8.60;;;2.67;;
56541;SDS011;42438;53.174;6.730;2023-09-19T06:01:44;5.90;;;2.33;;
56541;SDS011;42438;53.174;6.730;2023-09-19T06:04:14;7.13;;;2.13;;
56541;SDS011;42438;53.174;6.730;2023-09-19T06:06:45;6.57;;;2.00;;
56541;SDS011;42438;53.174;6.730;2023-09-19T06:09:19;6.45;;;2.00;;
56541;SDS011;42438;53.174;6.730;2023-09-19T06:11:49;9.25;;;2.65;;
56541;SDS011;42438;53.174;6.730;2023-09-19T06:14:21;10.68;;;2.28;;
56541;SDS011;42438;53.174;6.730;2023-09-19T06:16:53;7.25;;;2.30;;
56541;SDS011;42438;53.174;6.730;2023-09-19T06:19:24;7.35;;;2.30;;
56541;SDS011;42438;53.174;6.730;2023-09-19T06:21:55;8.30;;;1.95;;
56541;SDS011;42438;53.174;6.730;2023-09-19T06:24:26;11.50;;;2.47;;
56541;SDS011;42438;53.174;6.730;2023-09-19T06:26:57;8.73;;;2.30;;
56541;SDS011;42438;53.174;6.730;2023-09-19T06:29:27;9.90;;;2.45;;
56541;SDS011;42438;53.174;6.730;2023-09-19T06:31:58;7.05;;;1.85;;
56541;SDS011;42438;53.174;6.730;2023-09-19T06:34:29;6.97;;;1.83;;
56541;SDS011;42438;53.174;6.730;2023-09-19T06:36:59;7.30;;;2.20;;
56541;SDS011;42438;53.174;6.730;2023-09-19T06:39:30;9.35;;;1.90;;
56541;SDS011;42438;53.174;6.730;2023-09-19T06:42:03;8.63;;;2.22;;
56541;SDS011;42438;53.174;6.730;2023-09-19T06:44:35;8.75;;;2.30;;
56541;SDS011;42438;53.174;6.730;2023-09-19T06:47:05;10.00;;;2.00;;
56541;SDS011;42438;53.174;6.730;2023-09-19T06:49:36;9.30;;;2.50;;
56541;SDS011;42438;53.174;6.730;2023-09-19T06:52:07;7.47;;;2.10;;
56541;SDS011;42438;53.174;6.730;2023-09-19T06:54:38;9.93;;;1.95;;
56541;SDS011;42438;53.174;6.730;2023-09-19T06:57:10;11.07;;;2.85;;
56541;SDS011;42438;53.174;6.730;2023-09-19T06:59:40;6.20;;;1.92;;
56541;SDS011;42438;53.174;6.730;2023-09-19T07:02:11;9.27;;;3.03;;
56541;SDS011;42438;53.174;6.730;2023-09-19T07:04:43;9.23;;;2.42;;
56541;SDS011;42438;53.174;6.730;2023-09-19T07:07:14;8.60;;;2.47;;
56541;SDS011;42438;53.174;6.730;2023-09-19T07:09:48;7.93;;;2.08;;
56541;SDS011;42438;53.174;6.730;2023-09-19T07:12:19;12.43;;;2.55;;
56541;SDS011;42438;53.174;6.730;2023-09-19T07:14:49;8.48;;;2.00;;
56541;SDS011;42438;53.174;6.730;2023-09-19T07:17:20;8.48;;;2.00;;
56541;SDS011;42438;53.174;6.730;2023-09-19T07:19:51;5.80;;;1.77;;
56541;SDS011;42438;53.174;6.730;2023-09-19T07:22:22;11.60;;;2.40;;
56541;SDS011;42438;53.174;6.730;2023-09-19T07:24:53;12.05;;;2.28;;
56541;SDS011;42438;53.174;6.730;2023-09-19T07:27:24;8.80;;;2.42;;
56541;SDS011;42438;53.174;6.730;2023-09-19T07:29:55;11.02;;;2.25;;
56541;SDS011;42438;53.174;6.730;2023-09-19T07:32:26;9.90;;;2.13;;
56541;SDS011;42438;53.174;6.730;2023-09-19T07:34:56;11.57;;;2.40;;
56541;SDS011;42438;53.174;6.730;2023-09-19T07:37:28;11.32;;;2.42;;
56541;SDS011;42438;53.174;6.730;2023-09-19T07:40:04;13.23;;;3.22;;
56541;SDS011;42438;53.174;6.730;2023-09-19T07:42:39;9.95;;;2.63;;
56541;SDS011;42438;53.174;6.730;2023-09-19T07:45:10;9.88;;;2.15;;
56541;SDS011;42438;53.174;6.730;2023-09-19T07:47:44;15.05;;;3.03;;
56541;SDS011;42438;53.174;6.730;2023-09-19T07:50:16;7.80;;;2.33;;
56541;SDS011;42438;53.174;6.730;2023-09-19T07:52:50;9.48;;;2.50;;
56541;SDS011;42438;53.174;6.730;2023-09-19T07:55:22;8.65;;;2.50;;
56541;SDS011;42438;53.174;6.730;2023-09-19T07:57:55;8.43;;;2.30;;
56541;SDS011;42438;53.174;6.730;2023-09-19T08:00:26;8.52;;;2.38;;
56541;SDS011;42438;53.174;6.730;2023-09-19T08:02:56;11.68;;;2.65;;
56541;SDS011;42438;53.174;6.730;2023-09-19T08:05:27;10.43;;;2.70;;
56541;SDS011;42438;53.174;6.730;2023-09-19T08:07:58;10.27;;;2.20;;
56541;SDS011;42438;53.174;6.730;2023-09-19T08:10:29;11.40;;;2.40;;
56541;SDS011;42438;53.174;6.730;2023-09-19T08:13:05;6.68;;;2.25;;
56541;SDS011;42438;53.174;6.730;2023-09-19T08:15:40;9.27;;;2.83;;
56541;SDS011;42438;53.174;6.730;2023-09-19T08:18:14;10.60;;;2.65;;
56541;SDS011;42438;53.174;6.730;2023-09-19T08:20:49;9.88;;;2.50;;
56541;SDS011;42438;53.174;6.730;2023-09-19T08:23:21;7.50;;;2.20;;
56541;SDS011;42438;53.174;6.730;2023-09-19T08:25:55;12.32;;;3.10;;
56541;SDS011;42438;53.174;6.730;2023-09-19T08:28:27;9.05;;;2.13;;
56541;SDS011;42438;53.174;6.730;2023-09-19T08:31:03;5.45;;;1.90;;
56541;SDS011;42438;53.174;6.730;2023-09-19T08:33:35;6.18;;;1.98;;
56541;SDS011;42438;53.174;6.730;2023-09-19T08:36:06;6.95;;;2.10;;
56541;SDS011;42438;53.174;6.730;2023-09-19T08:38:39;7.85;;;2.17;;
56541;SDS011;42438;53.174;6.730;2023-09-19T08:41:09;11.40;;;2.30;;
56541;SDS011;42438;53.174;6.730;2023-09-19T08:43:40;8.93;;;2.17;;
56541;SDS011;42438;53.174;6.730;2023-09-19T08:46:11;8.77;;;2.65;;
56541;SDS011;42438;53.174;6.730;2023-09-19T08:48:57;5.97;;;2.22;;
56541;SDS011;42438;53.174;6.730;2023-09-19T08:51:42;6.88;;;2.10;;
56541;SDS011;42438;53.174;6.730;2023-09-19T08:54:25;9.23;;;3.00;;
56541;SDS011;42438;53.174;6.730;2023-09-19T08:59:35;8.35;;;2.65;;
56541;SDS011;42438;53.174;6.730;2023-09-19T09:02:10;7.72;;;2.67;;
56541;SDS011;42438;53.174;6.730;2023-09-19T09:04:43;9.10;;;2.25;;
56541;SDS011;42438;53.174;6.730;2023-09-19T09:07:14;9.50;;;2.60;;
56541;SDS011;42438;53.174;6.730;2023-09-19T09:09:47;9.82;;;2.50;;
56541;SDS011;42438;53.174;6.730;2023-09-19T09:12:18;9.05;;;2.70;;
56541;SDS011;42438;53.174;6.730;2023-09-19T09:14:50;13.20;;;3.35;;
56541;SDS011;42438;53.174;6.730;2023-09-19T09:17:25;11.00;;;3.10;;
56541;SDS011;42438;53.174;6.730;2023-09-19T09:19:56;9.85;;;3.00;;
56541;SDS011;42438;53.174;6.730;2023-09-19T09:22:27;10.43;;;3.05;;
56541;SDS011;42438;53.174;6.730;2023-09-19T09:24:57;8.23;;;3.10;;
56541;SDS011;42438;53.174;6.730;2023-09-19T09:27:28;12.68;;;3.67;;
56541;SDS011;42438;53.174;6.730;2023-09-19T09:29:59;13.07;;;3.08;;
56541;SDS011;42438;53.174;6.730;2023-09-19T09:32:30;11.02;;;3.35;;
56541;SDS011;42438;53.174;6.730;2023-09-19T09:35:07;9.27;;;3.35;;
56541;SDS011;42438;53.174;6.730;2023-09-19T09:37:41;10.93;;;3.38;;
56541;SDS011;42438;53.174;6.730;2023-09-19T09:40:13;12.73;;;3.20;;
56541;SDS011;42438;53.174;6.730;2023-09-19T09:45:23;12.68;;;3.83;;
56541;SDS011;42438;53.174;6.730;2023-09-19T09:48:03;10.85;;;2.83;;
56541;SDS011;42438;53.174;6.730;2023-09-19T09:50:47;7.40;;;3.08;;
56541;SDS011;42438;53.174;6.730;2023-09-19T09:58:33;12.32;;;2.72;;
56541;SDS011;42438;53.174;6.730;2023-09-19T10:01:10;9.98;;;2.28;;
56541;SDS011;42438;53.174;6.730;2023-09-19T10:03:45;8.18;;;2.92;;
56541;SDS011;42438;53.174;6.730;2023-09-19T10:06:19;7.47;;;2.78;;
56541;SDS011;42438;53.174;6.730;2023-09-19T10:09:01;10.48;;;2.33;;
56541;SDS011;42438;53.174;6.730;2023-09-19T10:11:46;7.88;;;2.60;;
56541;SDS011;42438;53.174;6.730;2023-09-19T10:14:28;10.73;;;2.95;;
56541;SDS011;42438;53.174;6.730;2023-09-19T10:17:01;14.35;;;2.60;;
56541;SDS011;42438;53.174;6.730;2023-09-19T10:19:42;9.27;;;2.60;;
56541;SDS011;42438;53.174;6.730;2023-09-19T10:22:21;9.27;;;2.97;;
56541;SDS011;42438;53.174;6.730;2023-09-19T10:24:53;11.38;;;2.25;;
56541;SDS011;42438;53.174;6.730;2023-09-19T10:27:25;10.50;;;2.58;;
56541;SDS011;42438;53.174;6.730;2023-09-19T10:29:56;12.45;;;2.58;;
56541;SDS011;42438;53.174;6.730;2023-09-19T10:32:29;9.38;;;2.40;;
56541;SDS011;42438;53.174;6.730;2023-09-19T10:35:03;5.78;;;2.25;;
56541;SDS011;42438;53.174;6.730;2023-09-19T10:37:37;11.32;;;2.65;;
56541;SDS011;42438;53.174;6.730;2023-09-19T10:40:09;9.82;;;2.42;;
56541;SDS011;42438;53.174;6.730;2023-09-19T10:42:42;7.15;;;2.33;;
56541;SDS011;42438;53.174;6.730;2023-09-19T10:45:14;9.02;;;2.20;;
56541;SDS011;42438;53.174;6.730;2023-09-19T10:47:50;7.82;;;3.10;;
56541;SDS011;42438;53.174;6.730;2023-09-19T10:50:21;12.85;;;2.38;;
56541;SDS011;42438;53.174;6.730;2023-09-19T10:52:53;8.63;;;2.72;;
56541;SDS011;42438;53.174;6.730;2023-09-19T10:55:28;12.02;;;2.85;;
56541;SDS011;42438;53.174;6.730;2023-09-19T10:58:01;9.07;;;2.58;;
56541;SDS011;42438;53.174;6.730;2023-09-19T11:00:54;10.27;;;3.13;;
56541;SDS011;42438;53.174;6.730;2023-09-19T11:03:26;7.07;;;2.38;;
56541;SDS011;42438;53.174;6.730;2023-09-19T11:06:18;9.25;;;2.90;;
56541;SDS011;42438;53.174;6.730;2023-09-19T11:11:50;12.15;;;3.08;;
56541;SDS011;42438;53.174;6.730;2023-09-19T11:30:56;8.32;;;2.60;;
56541;SDS011;42438;53.174;6.730;2023-09-19T11:33:29;7.38;;;2.28;;
56541;SDS011;42438;53.174;6.730;2023-09-19T11:36:12;6.95;;;2.15;;
56541;SDS011;42438;53.174;6.730;2023-09-19T11:46:33;9.85;;;2.35;;
56541;SDS011;42438;53.174;6.730;2023-09-19T11:49:05;8.30;;;2.30;;
56541;SDS011;42438;53.174;6.730;2023-09-19T11:51:43;9.05;;;2.75;;
56541;SDS011;42438;53.174;6.730;2023-09-19T11:54:14;10.32;;;2.28;;
56541;SDS011;42438;53.174;6.730;2023-09-19T11:56:49;8.20;;;2.35;;
56541;SDS011;42438;53.174;6.730;2023-09-19T11:59:29;10.05;;;2.60;;
56541;SDS011;42438;53.174;6.730;2023-09-19T12:02:01;9.35;;;2.90;;
56541;SDS011;42438;53.174;6.730;2023-09-19T12:04:35;10.88;;;2.42;;
56541;SDS011;42438;53.174;6.730;2023-09-19T12:07:14;9.80;;;2.58;;
56541;SDS011;42438;53.174;6.730;2023-09-19T12:09:46;6.10;;;2.40;;
56541;SDS011;42438;53.174;6.730;2023-09-19T12:12:19;6.72;;;2.30;;
56541;SDS011;42438;53.174;6.730;2023-09-19T12:14:57;8.40;;;2.67;;
56541;SDS011;42438;53.174;6.730;2023-09-19T12:17:38;10.32;;;2.50;;
56541;SDS011;42438;53.174;6.730;2023-09-19T12:20:11;8.93;;;2.10;;
56541;SDS011;42438;53.174;6.730;2023-09-19T12:22:45;14.25;;;2.72;;
56541;SDS011;42438;53.174;6.730;2023-09-19T12:25:17;9.98;;;2.40;;
56541;SDS011;42438;53.174;6.730;2023-09-19T12:27:48;14.93;;;2.53;;
56541;SDS011;42438;53.174;6.730;2023-09-19T12:30:27;9.77;;;2.70;;
56541;SDS011;42438;53.174;6.730;2023-09-19T12:32:58;9.45;;;2.72;;
56541;SDS011;42438;53.174;6.730;2023-09-19T12:35:32;9.90;;;2.20;;
56541;SDS011;42438;53.174;6.730;2023-09-19T12:38:05;11.45;;;2.50;;
56541;SDS011;42438;53.174;6.730;2023-09-19T12:40:38;13.57;;;2.78;;
56541;SDS011;42438;53.174;6.730;2023-09-19T12:43:12;8.23;;;2.00;;
56541;SDS011;42438;53.174;6.730;2023-09-19T12:45:45;8.48;;;2.15;;
56541;SDS011;42438;53.174;6.730;2023-09-19T12:48:18;9.63;;;2.28;;
56541;SDS011;42438;53.174;6.730;2023-09-19T12:51:05;8.50;;;2.00;;
56541;SDS011;42438;53.174;6.730;2023-09-19T12:53:46;8.90;;;2.20;;
56541;SDS011;42438;53.174;6.730;2023-09-19T12:56:28;10.25;;;1.98;;
56541;SDS011;42438;53.174;6.730;2023-09-19T12:59:09;9.70;;;2.15;;
56541;SDS011;42438;53.174;6.730;2023-09-19T13:01:42;11.73;;;2.63;;
56541;SDS011;42438;53.174;6.730;2023-09-19T13:06:55;7.40;;;2.00;;
56541;SDS011;42438;53.174;6.730;2023-09-19T13:09:30;6.80;;;2.20;;
56541;SDS011;42438;53.174;6.730;2023-09-19T13:15:09;10.75;;;2.33;;
56541;SDS011;42438;53.174;6.730;2023-09-19T13:17:43;5.40;;;2.20;;
56541;SDS011;42438;53.174;6.730;2023-09-19T13:20:26;8.00;;;2.47;;
56541;SDS011;42438;53.174;6.730;2023-09-19T13:22:57;8.50;;;2.40;;
56541;SDS011;42438;53.174;6.730;2023-09-19T13:25:30;10.53;;;2.23;;
56541;SDS011;42438;53.174;6.730;2023-09-19T13:30:36;9.00;;;2.15;;
56541;SDS011;42438;53.174;6.730;2023-09-19T13:33:12;5.82;;;1.75;;
56541;SDS011;42438;53.174;6.730;2023-09-19T13:35:49;9.43;;;2.28;;
56541;SDS011;42438;53.174;6.730;2023-09-19T13:38:20;6.47;;;2.20;;
56541;SDS011;42438;53.174;6.730;2023-09-19T13:40:52;6.28;;;2.17;;
56541;SDS011;42438;53.174;6.730;2023-09-19T13:43:22;6.80;;;1.55;;
56541;SDS011;42438;53.174;6.730;2023-09-19T13:45:55;4.23;;;1.67;;
56541;SDS011;42438;53.174;6.730;2023-09-19T13:48:27;6.93;;;1.90;;
56541;SDS011;42438;53.174;6.730;2023-09-19T13:51:01;8.27;;;2.03;;
56541;SDS011;42438;53.174;6.730;2023-09-19T13:53:33;9.73;;;2.15;;
56541;SDS011;42438;53.174;6.730;2023-09-19T13:56:04;7.10;;;2.00;;
56541;SDS011;42438;53.174;6.730;2023-09-19T13:58:35;5.95;;;1.98;;
56541;SDS011;42438;53.174;6.730;2023-09-19T14:01:05;4.55;;;1.98;;
56541;SDS011;42438;53.174;6.730;2023-09-19T14:03:42;7.25;;;1.60;;
56541;SDS011;42438;53.174;6.730;2023-09-19T14:06:16;3.88;;;1.77;;
56541;SDS011;42438;53.174;6.730;2023-09-19T14:08:47;5.50;;;1.60;;
56541;SDS011;42438;53.174;6.730;2023-09-19T14:11:20;7.10;;;1.77;;
56541;SDS011;42438;53.174;6.730;2023-09-19T14:13:50;6.25;;;1.80;;
56541;SDS011;42438;53.174;6.730;2023-09-19T14:16:22;7.80;;;2.03;;
56541;SDS011;42438;53.174;6.730;2023-09-19T14:18:54;5.63;;;1.75;;
56541;SDS011;42438;53.174;6.730;2023-09-19T14:21:25;6.63;;;1.70;;
56541;SDS011;42438;53.174;6.730;2023-09-19T14:23:56;4.35;;;1.50;;
56541;SDS011;42438;53.174;6.730;2023-09-19T14:26:26;8.18;;;1.90;;
56541;SDS011;42438;53.174;6.730;2023-09-19T14:28:57;5.60;;;1.60;;
56541;SDS011;42438;53.174;6.730;2023-09-19T14:31:28;4.03;;;1.73;;
56541;SDS011;42438;53.174;6.730;2023-09-19T14:33:59;5.40;;;1.48;;
56541;SDS011;42438;53.174;6.730;2023-09-19T14:36:29;5.80;;;1.85;;
56541;SDS011;42438;53.174;6.730;2023-09-19T14:39:00;6.40;;;1.42;;
56541;SDS011;42438;53.174;6.730;2023-09-19T14:41:34;4.97;;;1.42;;
56541;SDS011;42438;53.174;6.730;2023-09-19T14:44:04;4.90;;;1.60;;
56541;SDS011;42438;53.174;6.730;2023-09-19T14:46:36;4.38;;;1.70;;
56541;SDS011;42438;53.174;6.730;2023-09-19T14:49:06;6.53;;;1.80;;
56541;SDS011;42438;53.174;6.730;2023-09-19T14:51:40;4.22;;;1.63;;
56541;SDS011;42438;53.174;6.730;2023-09-19T14:54:10;5.72;;;1.50;;
56541;SDS011;42438;53.174;6.730;2023-09-19T14:56:41;4.80;;;1.52;;
56541;SDS011;42438;53.174;6.730;2023-09-19T14:59:12;6.82;;;1.60;;
56541;SDS011;42438;53.174;6.730;2023-09-19T15:01:43;6.25;;;2.22;;
56541;SDS011;42438;53.174;6.730;2023-09-19T15:04:14;5.63;;;1.45;;
56541;SDS011;42438;53.174;6.730;2023-09-19T15:06:45;5.03;;;1.60;;
56541;SDS011;42438;53.174;6.730;2023-09-19T15:09:16;6.22;;;1.80;;
56541;SDS011;42438;53.174;6.730;2023-09-19T15:11:49;7.82;;;2.03;;
56541;SDS011;42438;53.174;6.730;2023-09-19T15:14:20;6.30;;;1.75;;
56541;SDS011;42438;53.174;6.730;2023-09-19T15:16:51;5.43;;;1.65;;
56541;SDS011;42438;53.174;6.730;2023-09-19T15:19:22;6.57;;;1.70;;
56541;SDS011;42438;53.174;6.730;2023-09-19T15:21:53;3.88;;;1.20;;
56541;SDS011;42438;53.174;6.730;2023-09-19T15:24:23;5.35;;;1.67;;
56541;SDS011;42438;53.174;6.730;2023-09-19T15:26:56;5.15;;;1.75;;
56541;SDS011;42438;53.174;6.730;2023-09-19T15:29:27;2.72;;;1.42;;
56541;SDS011;42438;53.174;6.730;2023-09-19T15:31:58;4.30;;;1.27;;
56541;SDS011;42438;53.174;6.730;2023-09-19T15:34:32;6.70;;;1.35;;
56541;SDS011;42438;53.174;6.730;2023-09-19T15:37:03;3.70;;;1.40;;
56541;SDS011;42438;53.174;6.730;2023-09-19T15:39:34;5.43;;;1.50;;
56541;SDS011;42438;53.174;6.730;2023-09-19T15:42:07;4.53;;;1.30;;
56541;SDS011;42438;53.174;6.730;2023-09-19T15:44:37;3.45;;;1.45;;
56541;SDS011;42438;53.174;6.730;2023-09-19T15:47:08;6.07;;;1.48;;
56541;SDS011;42438;53.174;6.730;2023-09-19T15:49:39;5.28;;;1.77;;
56541;SDS011;42438;53.174;6.730;2023-09-19T15:52:10;4.88;;;1.40;;
56541;SDS011;42438;53.174;6.730;2023-09-19T15:54:40;3.92;;;1.98;;
56541;SDS011;42438;53.174;6.730;2023-09-19T15:57:14;6.05;;;1.80;;
56541;SDS011;42438;53.174;6.730;2023-09-19T15:59:45;5.45;;;1.63;;
56541;SDS011;42438;53.174;6.730;2023-09-19T16:02:17;6.18;;;1.50;;
56541;SDS011;42438;53.174;6.730;2023-09-19T16:04:47;5.70;;;1.90;;
56541;SDS011;42438;53.174;6.730;2023-09-19T16:07:18;8.60;;;2.20;;
56541;SDS011;42438;53.174;6.730;2023-09-19T16:09:49;5.68;;;2.00;;
56541;SDS011;42438;53.174;6.730;2023-09-19T16:12:20;8.20;;;1.92;;
56541;SDS011;42438;53.174;6.730;2023-09-19T16:14:50;5.18;;;1.45;;
56541;SDS011;42438;53.174;6.730;2023-09-19T16:17:21;4.25;;;1.70;;
56541;SDS011;42438;53.174;6.730;2023-09-19T16:19:52;4.78;;;1.60;;
56541;SDS011;42438;53.174;6.730;2023-09-19T16:22:24;3.33;;;1.60;;
56541;SDS011;42438;53.174;6.730;2023-09-19T16:24:56;3.30;;;1.88;;
56541;SDS011;42438;53.174;6.730;2023-09-19T16:27:27;5.32;;;1.45;;
56541;SDS011;42438;53.174;6.730;2023-09-19T16:29:57;4.30;;;1.58;;
56541;SDS011;42438;53.174;6.730;2023-09-19T16:32:28;3.92;;;1.63;;